sensor_id;sensor_type;location;lat;lon;timestamp;temperature;humidity
38325;DHT22;24126;52.672;13.622;2023-04-22T00:01:31;15.70;50.10
38325;DHT22;24126;52.672;13.622;2023-04-22T00:03:58;15.70;49.90
38325;DHT22;24126;52.672;13.622;2023-04-22T00:06:26;15.70;50.00
38325;DHT22;24126;52.672;13.622;2023-04-22T00:08:53;15.60;49.80
38325;DHT22;24126;52.672;13.622;2023-04-22T00:11:21;15.70;50.00
38325;DHT22;24126;52.672;13.622;2023-04-22T00:13:48;15.60;50.10
38325;DHT22;24126;52.672;13.622;2023-04-22T00:16:15;15.60;50.30
38325;DHT22;24126;52.672;13.622;2023-04-22T00:18:42;15.60;50.20
38325;DHT22;24126;52.672;13.622;2023-04-22T00:21:09;15.50;50.20
38325;DHT22;24126;52.672;13.622;2023-04-22T00:23:36;15.50;49.90
38325;DHT22;24126;52.672;13.622;2023-04-22T00:26:03;15.50;50.10
38325;DHT22;24126;52.672;13.622;2023-04-22T00:28:30;15.50;50.10
38325;DHT22;24126;52.672;13.622;2023-04-22T00:30:57;15.50;50.00
38325;DHT22;24126;52.672;13.622;2023-04-22T00:33:24;15.40;50.30
38325;DHT22;24126;52.672;13.622;2023-04-22T00:35:51;15.40;50.60
38325;DHT22;24126;52.672;13.622;2023-04-22T00:38:19;15.40;51.00
38325;DHT22;24126;52.672;13.622;2023-04-22T00:40:46;15.30;51.00
38325;DHT22;24126;52.672;13.622;2023-04-22T00:43:15;15.30;50.90
38325;DHT22;24126;52.672;13.622;2023-04-22T00:45:42;15.30;50.90
38325;DHT22;24126;52.672;13.622;2023-04-22T00:48:10;15.20;51.00
38325;DHT22;24126;52.672;13.622;2023-04-22T00:50:38;15.20;51.20
38325;DHT22;24126;52.672;13.622;2023-04-22T00:53:06;15.20;51.40
38325;DHT22;24126;52.672;13.622;2023-04-22T00:55:33;15.20;51.40
38325;DHT22;24126;52.672;13.622;2023-04-22T00:58:00;15.10;51.90
38325;DHT22;24126;52.672;13.622;2023-04-22T01:00:28;15.10;51.60
38325;DHT22;24126;52.672;13.622;2023-04-22T01:02:55;15.10;51.70
38325;DHT22;24126;52.672;13.622;2023-04-22T01:05:23;15.00;52.00
38325;DHT22;24126;52.672;13.622;2023-04-22T01:07:50;15.00;52.00
38325;DHT22;24126;52.672;13.622;2023-04-22T01:10:18;15.00;52.20
38325;DHT22;24126;52.672;13.622;2023-04-22T01:12:45;14.90;52.10
38325;DHT22;24126;52.672;13.622;2023-04-22T01:15:12;14.90;52.20
38325;DHT22;24126;52.672;13.622;2023-04-22T01:17:40;14.80;52.40
38325;DHT22;24126;52.672;13.622;2023-04-22T01:20:07;14.80;52.50
38325;DHT22;24126;52.672;13.622;2023-04-22T01:22:38;14.80;52.50
38325;DHT22;24126;52.672;13.622;2023-04-22T01:25:06;14.80;52.60
38325;DHT22;24126;52.672;13.622;2023-04-22T01:27:34;14.70;52.10
38325;DHT22;24126;52.672;13.622;2023-04-22T01:30:01;14.70;52.40
38325;DHT22;24126;52.672;13.622;2023-04-22T01:32:29;14.70;52.40
38325;DHT22;24126;52.672;13.622;2023-04-22T01:34:57;14.70;52.20
38325;DHT22;24126;52.672;13.622;2023-04-22T01:37:24;14.70;52.10
38325;DHT22;24126;52.672;13.622;2023-04-22T01:39:51;14.70;52.40
38325;DHT22;24126;52.672;13.622;2023-04-22T01:42:19;14.60;52.50
38325;DHT22;24126;52.672;13.622;2023-04-22T01:44:46;14.70;52.40
38325;DHT22;24126;52.672;13.622;2023-04-22T01:47:13;14.60;52.50
38325;DHT22;24126;52.672;13.622;2023-04-22T01:49:41;14.60;52.40
38325;DHT22;24126;52.672;13.622;2023-04-22T01:52:08;14.60;51.70
38325;DHT22;24126;52.672;13.622;2023-04-22T01:54:35;14.70;51.40
38325;DHT22;24126;52.672;13.622;2023-04-22T01:57:06;14.60;51.30
38325;DHT22;24126;52.672;13.622;2023-04-22T01:59:33;14.70;50.90
38325;DHT22;24126;52.672;13.622;2023-04-22T02:02:01;14.70;50.80
38325;DHT22;24126;52.672;13.622;2023-04-22T02:04:28;14.70;51.00
38325;DHT22;24126;52.672;13.622;2023-04-22T02:06:55;14.70;50.60
38325;DHT22;24126;52.672;13.622;2023-04-22T02:09:22;14.70;50.50
38325;DHT22;24126;52.672;13.622;2023-04-22T02:11:49;14.70;50.20
38325;DHT22;24126;52.672;13.622;2023-04-22T02:14:20;14.70;50.20
38325;DHT22;24126;52.672;13.622;2023-04-22T02:16:47;14.70;50.00
38325;DHT22;24126;52.672;13.622;2023-04-22T02:19:15;14.70;49.90
38325;DHT22;24126;52.672;13.622;2023-04-22T02:21:42;14.60;49.90
38325;DHT22;24126;52.672;13.622;2023-04-22T02:24:10;14.60;49.80
38325;DHT22;24126;52.672;13.622;2023-04-22T02:26:37;14.60;49.90
38325;DHT22;24126;52.672;13.622;2023-04-22T02:29:04;14.60;50.00
38325;DHT22;24126;52.672;13.622;2023-04-22T02:31:31;14.60;49.80
38325;DHT22;24126;52.672;13.622;2023-04-22T02:33:58;14.60;49.70
38325;DHT22;24126;52.672;13.622;2023-04-22T02:36:25;14.60;50.20
38325;DHT22;24126;52.672;13.622;2023-04-22T02:38:53;14.60;50.30
38325;DHT22;24126;52.672;13.622;2023-04-22T02:41:20;14.60;50.20
38325;DHT22;24126;52.672;13.622;2023-04-22T02:43:47;14.60;50.90
38325;DHT22;24126;52.672;13.622;2023-04-22T02:46:15;14.50;50.70
38325;DHT22;24126;52.672;13.622;2023-04-22T02:48:42;14.50;50.60
38325;DHT22;24126;52.672;13.622;2023-04-22T02:51:09;14.50;50.70
38325;DHT22;24126;52.672;13.622;2023-04-22T02:53:36;14.50;51.00
38325;DHT22;24126;52.672;13.622;2023-04-22T02:56:03;14.50;51.30
38325;DHT22;24126;52.672;13.622;2023-04-22T02:58:30;14.50;51.30
38325;DHT22;24126;52.672;13.622;2023-04-22T03:00:57;14.50;50.90
38325;DHT22;24126;52.672;13.622;2023-04-22T03:03:24;14.40;50.80
38325;DHT22;24126;52.672;13.622;2023-04-22T03:05:52;14.40;50.80
38325;DHT22;24126;52.672;13.622;2023-04-22T03:08:19;14.40;51.20
38325;DHT22;24126;52.672;13.622;2023-04-22T03:10:46;14.40;51.40
38325;DHT22;24126;52.672;13.622;2023-04-22T03:13:13;14.40;51.80
38325;DHT22;24126;52.672;13.622;2023-04-22T03:15:41;14.30;52.10
38325;DHT22;24126;52.672;13.622;2023-04-22T03:18:08;14.20;52.40
38325;DHT22;24126;52.672;13.622;2023-04-22T03:20:35;14.20;52.60
38325;DHT22;24126;52.672;13.622;2023-04-22T03:23:02;14.10;52.60
38325;DHT22;24126;52.672;13.622;2023-04-22T03:25:31;14.10;52.60
38325;DHT22;24126;52.672;13.622;2023-04-22T03:27:58;14.00;52.70
38325;DHT22;24126;52.672;13.622;2023-04-22T03:30:25;14.00;52.40
38325;DHT22;24126;52.672;13.622;2023-04-22T03:32:53;14.00;52.80
38325;DHT22;24126;52.672;13.622;2023-04-22T03:35:28;14.00;52.80
38325;DHT22;24126;52.672;13.622;2023-04-22T03:37:59;13.90;52.80
38325;DHT22;24126;52.672;13.622;2023-04-22T03:40:31;13.90;53.20
38325;DHT22;24126;52.672;13.622;2023-04-22T03:42:59;13.90;53.20
38325;DHT22;24126;52.672;13.622;2023-04-22T03:45:28;13.80;53.10
38325;DHT22;24126;52.672;13.622;2023-04-22T03:48:14;13.80;53.30
38325;DHT22;24126;52.672;13.622;2023-04-22T03:50:47;13.80;53.10
38325;DHT22;24126;52.672;13.622;2023-04-22T03:53:14;13.70;53.20
38325;DHT22;24126;52.672;13.622;2023-04-22T03:55:42;13.70;53.30
38325;DHT22;24126;52.672;13.622;2023-04-22T03:58:09;13.70;53.00
38325;DHT22;24126;52.672;13.622;2023-04-22T04:00:37;13.70;53.00
38325;DHT22;24126;52.672;13.622;2023-04-22T04:03:09;13.70;53.20
38325;DHT22;24126;52.672;13.622;2023-04-22T04:05:36;13.70;53.20
38325;DHT22;24126;52.672;13.622;2023-04-22T04:08:03;13.70;53.10
38325;DHT22;24126;52.672;13.622;2023-04-22T04:10:31;13.70;53.00
38325;DHT22;24126;52.672;13.622;2023-04-22T04:12:59;13.70;53.00
38325;DHT22;24126;52.672;13.622;2023-04-22T04:15:29;13.70;53.10
38325;DHT22;24126;52.672;13.622;2023-04-22T04:17:57;13.70;52.80
38325;DHT22;24126;52.672;13.622;2023-04-22T04:20:28;13.70;52.70
38325;DHT22;24126;52.672;13.622;2023-04-22T04:22:55;13.70;52.60
38325;DHT22;24126;52.672;13.622;2023-04-22T04:25:22;13.70;52.50
38325;DHT22;24126;52.672;13.622;2023-04-22T04:27:49;13.80;52.50
38325;DHT22;24126;52.672;13.622;2023-04-22T04:30:17;13.80;52.40
38325;DHT22;24126;52.672;13.622;2023-04-22T04:32:50;13.90;52.60
38325;DHT22;24126;52.672;13.622;2023-04-22T04:35:18;13.90;53.00
38325;DHT22;24126;52.672;13.622;2023-04-22T04:37:49;13.90;53.30
38325;DHT22;24126;52.672;13.622;2023-04-22T04:40:18;13.90;53.40
38325;DHT22;24126;52.672;13.622;2023-04-22T04:43:13;13.90;53.80
38325;DHT22;24126;52.672;13.622;2023-04-22T04:45:46;14.00;53.80
38325;DHT22;24126;52.672;13.622;2023-04-22T04:48:15;13.90;53.70
38325;DHT22;24126;52.672;13.622;2023-04-22T04:50:50;14.00;53.80
38325;DHT22;24126;52.672;13.622;2023-04-22T04:53:20;14.10;53.70
38325;DHT22;24126;52.672;13.622;2023-04-22T04:55:47;14.70;53.60
38325;DHT22;24126;52.672;13.622;2023-04-22T04:58:20;15.50;52.30
38325;DHT22;24126;52.672;13.622;2023-04-22T05:00:54;16.40;50.80
38325;DHT22;24126;52.672;13.622;2023-04-22T05:03:21;17.30;49.10
38325;DHT22;24126;52.672;13.622;2023-04-22T05:05:48;18.10;47.80
38325;DHT22;24126;52.672;13.622;2023-04-22T05:08:16;18.60;46.80
38325;DHT22;24126;52.672;13.622;2023-04-22T05:10:45;18.90;46.10
38325;DHT22;24126;52.672;13.622;2023-04-22T05:13:13;18.90;46.00
38325;DHT22;24126;52.672;13.622;2023-04-22T05:15:43;18.90;46.00
38325;DHT22;24126;52.672;13.622;2023-04-22T05:18:11;18.80;46.10
38325;DHT22;24126;52.672;13.622;2023-04-22T05:20:38;18.80;46.10
38325;DHT22;24126;52.672;13.622;2023-04-22T05:23:05;18.70;46.10
38325;DHT22;24126;52.672;13.622;2023-04-22T05:25:32;18.80;46.20
38325;DHT22;24126;52.672;13.622;2023-04-22T05:28:05;18.90;45.70
38325;DHT22;24126;52.672;13.622;2023-04-22T05:30:39;19.20;45.30
38325;DHT22;24126;52.672;13.622;2023-04-22T05:33:08;19.70;44.40
38325;DHT22;24126;52.672;13.622;2023-04-22T05:35:35;20.40;42.80
38325;DHT22;24126;52.672;13.622;2023-04-22T05:38:02;21.30;41.10
38325;DHT22;24126;52.672;13.622;2023-04-22T05:40:31;22.40;39.10
38325;DHT22;24126;52.672;13.622;2023-04-22T05:42:59;23.40;37.10
38325;DHT22;24126;52.672;13.622;2023-04-22T05:45:27;24.40;35.40
38325;DHT22;24126;52.672;13.622;2023-04-22T05:47:54;25.30;33.70
38325;DHT22;24126;52.672;13.622;2023-04-22T05:50:23;25.70;32.60
38325;DHT22;24126;52.672;13.622;2023-04-22T05:52:59;25.90;31.80
38325;DHT22;24126;52.672;13.622;2023-04-22T05:55:27;26.00;31.70
38325;DHT22;24126;52.672;13.622;2023-04-22T05:57:55;25.80;32.00
38325;DHT22;24126;52.672;13.622;2023-04-22T06:00:33;25.60;32.40
38325;DHT22;24126;52.672;13.622;2023-04-22T06:03:14;25.10;33.60
38325;DHT22;24126;52.672;13.622;2023-04-22T06:05:41;24.60;34.40
38325;DHT22;24126;52.672;13.622;2023-04-22T06:08:09;24.10;35.60
38325;DHT22;24126;52.672;13.622;2023-04-22T06:10:36;23.60;36.70
38325;DHT22;24126;52.672;13.622;2023-04-22T06:13:03;23.20;37.70
38325;DHT22;24126;52.672;13.622;2023-04-22T06:15:30;22.80;38.40
38325;DHT22;24126;52.672;13.622;2023-04-22T06:17:58;22.50;39.10
38325;DHT22;24126;52.672;13.622;2023-04-22T06:20:25;22.10;39.80
38325;DHT22;24126;52.672;13.622;2023-04-22T06:22:53;21.80;40.60
38325;DHT22;24126;52.672;13.622;2023-04-22T06:25:20;21.60;40.70
38325;DHT22;24126;52.672;13.622;2023-04-22T06:27:47;21.40;41.40
38325;DHT22;24126;52.672;13.622;2023-04-22T06:30:14;21.20;41.70
38325;DHT22;24126;52.672;13.622;2023-04-22T06:32:41;21.00;42.40
38325;DHT22;24126;52.672;13.622;2023-04-22T06:35:09;20.90;43.00
38325;DHT22;24126;52.672;13.622;2023-04-22T06:37:36;20.90;43.60
38325;DHT22;24126;52.672;13.622;2023-04-22T06:40:05;20.90;43.30
38325;DHT22;24126;52.672;13.622;2023-04-22T06:42:58;21.00;43.30
38325;DHT22;24126;52.672;13.622;2023-04-22T06:46:03;21.00;43.10
38325;DHT22;24126;52.672;13.622;2023-04-22T06:48:39;21.10;42.80
38325;DHT22;24126;52.672;13.622;2023-04-22T06:51:25;21.30;43.20
38325;DHT22;24126;52.672;13.622;2023-04-22T06:53:52;21.50;42.90
38325;DHT22;24126;52.672;13.622;2023-04-22T06:56:20;21.60;42.10
38325;DHT22;24126;52.672;13.622;2023-04-22T06:58:47;21.80;42.40
38325;DHT22;24126;52.672;13.622;2023-04-22T07:01:14;21.90;41.80
38325;DHT22;24126;52.672;13.622;2023-04-22T07:03:41;22.10;42.00
38325;DHT22;24126;52.672;13.622;2023-04-22T07:06:12;22.20;41.30
38325;DHT22;24126;52.672;13.622;2023-04-22T07:08:40;22.40;40.90
38325;DHT22;24126;52.672;13.622;2023-04-22T07:11:07;22.40;40.40
38325;DHT22;24126;52.672;13.622;2023-04-22T07:13:58;22.50;40.20
38325;DHT22;24126;52.672;13.622;2023-04-22T07:16:25;22.70;40.20
38325;DHT22;24126;52.672;13.622;2023-04-22T07:18:52;22.70;39.50
38325;DHT22;24126;52.672;13.622;2023-04-22T07:21:19;22.80;39.70
38325;DHT22;24126;52.672;13.622;2023-04-22T07:23:46;22.80;39.30
38325;DHT22;24126;52.672;13.622;2023-04-22T07:26:13;22.90;39.60
38325;DHT22;24126;52.672;13.622;2023-04-22T07:28:40;23.00;40.30
38325;DHT22;24126;52.672;13.622;2023-04-22T07:31:07;23.10;39.70
38325;DHT22;24126;52.672;13.622;2023-04-22T07:33:34;23.10;39.70
38325;DHT22;24126;52.672;13.622;2023-04-22T07:36:02;23.20;39.70
38325;DHT22;24126;52.672;13.622;2023-04-22T07:38:29;23.20;40.20
38325;DHT22;24126;52.672;13.622;2023-04-22T07:40:56;23.30;39.90
38325;DHT22;24126;52.672;13.622;2023-04-22T07:43:23;23.40;39.40
38325;DHT22;24126;52.672;13.622;2023-04-22T07:45:50;23.50;39.20
38325;DHT22;24126;52.672;13.622;2023-04-22T07:48:17;23.50;39.10
38325;DHT22;24126;52.672;13.622;2023-04-22T07:50:44;23.60;39.30
38325;DHT22;24126;52.672;13.622;2023-04-22T07:53:11;23.60;38.80
38325;DHT22;24126;52.672;13.622;2023-04-22T07:55:40;23.70;39.10
38325;DHT22;24126;52.672;13.622;2023-04-22T07:58:07;23.70;39.40
38325;DHT22;24126;52.672;13.622;2023-04-22T08:00:34;23.80;39.70
38325;DHT22;24126;52.672;13.622;2023-04-22T08:03:01;24.00;39.70
38325;DHT22;24126;52.672;13.622;2023-04-22T08:05:28;24.00;39.30
38325;DHT22;24126;52.672;13.622;2023-04-22T08:07:55;24.10;38.80
38325;DHT22;24126;52.672;13.622;2023-04-22T08:10:22;24.00;38.60
38325;DHT22;24126;52.672;13.622;2023-04-22T08:12:49;24.00;39.50
38325;DHT22;24126;52.672;13.622;2023-04-22T08:15:16;24.10;39.20
38325;DHT22;24126;52.672;13.622;2023-04-22T08:17:43;24.20;39.00
38325;DHT22;24126;52.672;13.622;2023-04-22T08:20:11;24.30;39.00
38325;DHT22;24126;52.672;13.622;2023-04-22T08:22:40;24.40;39.10
38325;DHT22;24126;52.672;13.622;2023-04-22T08:25:08;24.60;39.10
38325;DHT22;24126;52.672;13.622;2023-04-22T08:27:36;24.70;38.20
38325;DHT22;24126;52.672;13.622;2023-04-22T08:30:04;24.80;38.30
38325;DHT22;24126;52.672;13.622;2023-04-22T08:32:31;24.90;38.40
38325;DHT22;24126;52.672;13.622;2023-04-22T08:34:58;25.00;38.00
38325;DHT22;24126;52.672;13.622;2023-04-22T08:37:25;25.10;37.80
38325;DHT22;24126;52.672;13.622;2023-04-22T08:39:53;25.20;37.60
38325;DHT22;24126;52.672;13.622;2023-04-22T08:42:20;25.30;37.60
38325;DHT22;24126;52.672;13.622;2023-04-22T08:44:47;25.50;37.30
38325;DHT22;24126;52.672;13.622;2023-04-22T08:47:15;25.70;37.60
38325;DHT22;24126;52.672;13.622;2023-04-22T08:49:42;25.80;37.80
38325;DHT22;24126;52.672;13.622;2023-04-22T08:52:10;25.90;37.60
38325;DHT22;24126;52.672;13.622;2023-04-22T08:54:40;26.00;37.10
38325;DHT22;24126;52.672;13.622;2023-04-22T08:57:07;26.20;36.60
38325;DHT22;24126;52.672;13.622;2023-04-22T08:59:36;26.30;36.90
38325;DHT22;24126;52.672;13.622;2023-04-22T09:02:03;26.40;36.40
38325;DHT22;24126;52.672;13.622;2023-04-22T09:04:31;26.50;36.40
38325;DHT22;24126;52.672;13.622;2023-04-22T09:06:58;26.60;36.00
38325;DHT22;24126;52.672;13.622;2023-04-22T09:09:26;26.80;36.00
38325;DHT22;24126;52.672;13.622;2023-04-22T09:11:53;26.80;35.20
38325;DHT22;24126;52.672;13.622;2023-04-22T09:14:20;26.80;35.60
38325;DHT22;24126;52.672;13.622;2023-04-22T09:16:48;26.90;36.00
38325;DHT22;24126;52.672;13.622;2023-04-22T09:19:15;27.00;35.40
38325;DHT22;24126;52.672;13.622;2023-04-22T09:21:42;27.10;35.90
38325;DHT22;24126;52.672;13.622;2023-04-22T09:24:10;27.30;34.90
38325;DHT22;24126;52.672;13.622;2023-04-22T09:26:41;27.30;34.80
38325;DHT22;24126;52.672;13.622;2023-04-22T09:29:12;27.30;35.20
38325;DHT22;24126;52.672;13.622;2023-04-22T09:31:39;27.40;35.10
38325;DHT22;24126;52.672;13.622;2023-04-22T09:34:06;27.60;34.90
38325;DHT22;24126;52.672;13.622;2023-04-22T09:36:34;27.70;34.00
38325;DHT22;24126;52.672;13.622;2023-04-22T09:39:03;27.80;33.50
38325;DHT22;24126;52.672;13.622;2023-04-22T09:41:31;27.80;33.60
38325;DHT22;24126;52.672;13.622;2023-04-22T09:44:00;27.80;34.30
38325;DHT22;24126;52.672;13.622;2023-04-22T09:46:27;27.80;34.60
38325;DHT22;24126;52.672;13.622;2023-04-22T09:48:55;27.80;34.00
38325;DHT22;24126;52.672;13.622;2023-04-22T09:51:22;27.90;33.70
38325;DHT22;24126;52.672;13.622;2023-04-22T09:54:23;28.00;33.30
38325;DHT22;24126;52.672;13.622;2023-04-22T09:59:10;28.20;33.40
38325;DHT22;24126;52.672;13.622;2023-04-22T10:01:38;28.30;33.10
38325;DHT22;24126;52.672;13.622;2023-04-22T10:04:06;28.30;33.30
38325;DHT22;24126;52.672;13.622;2023-04-22T10:06:34;28.40;32.60
38325;DHT22;24126;52.672;13.622;2023-04-22T10:09:02;28.40;32.50
38325;DHT22;24126;52.672;13.622;2023-04-22T10:11:30;28.40;32.40
38325;DHT22;24126;52.672;13.622;2023-04-22T10:13:57;28.30;32.30
38325;DHT22;24126;52.672;13.622;2023-04-22T10:16:26;28.40;32.40
38325;DHT22;24126;52.672;13.622;2023-04-22T10:18:54;28.40;32.50
38325;DHT22;24126;52.672;13.622;2023-04-22T10:21:22;28.40;33.10
38325;DHT22;24126;52.672;13.622;2023-04-22T10:23:50;28.50;32.60
38325;DHT22;24126;52.672;13.622;2023-04-22T10:29:06;28.40;32.00
38325;DHT22;24126;52.672;13.622;2023-04-22T10:31:36;28.50;32.40
38325;DHT22;24126;52.672;13.622;2023-04-22T10:34:13;28.50;32.00
38325;DHT22;24126;52.672;13.622;2023-04-22T10:36:53;28.50;32.40
38325;DHT22;24126;52.672;13.622;2023-04-22T10:39:20;28.60;33.40
38325;DHT22;24126;52.672;13.622;2023-04-22T10:41:55;28.70;31.60
38325;DHT22;24126;52.672;13.622;2023-04-22T10:44:22;28.70;31.90
38325;DHT22;24126;52.672;13.622;2023-04-22T10:46:56;28.60;31.10
38325;DHT22;24126;52.672;13.622;2023-04-22T10:49:24;28.50;31.20
38325;DHT22;24126;52.672;13.622;2023-04-22T10:56:59;28.40;31.30
38325;DHT22;24126;52.672;13.622;2023-04-22T10:59:26;28.40;31.40
38325;DHT22;24126;52.672;13.622;2023-04-22T11:01:53;28.40;31.90
38325;DHT22;24126;52.672;13.622;2023-04-22T11:04:21;28.40;32.00
38325;DHT22;24126;52.672;13.622;2023-04-22T11:09:38;28.50;30.50
38325;DHT22;24126;52.672;13.622;2023-04-22T11:14:51;28.50;31.50
38325;DHT22;24126;52.672;13.622;2023-04-22T11:17:19;28.50;30.00
38325;DHT22;24126;52.672;13.622;2023-04-22T11:19:46;28.50;30.30
38325;DHT22;24126;52.672;13.622;2023-04-22T11:22:13;28.50;30.60
38325;DHT22;24126;52.672;13.622;2023-04-22T11:24:51;28.50;30.70
38325;DHT22;24126;52.672;13.622;2023-04-22T11:27:18;28.50;30.70
38325;DHT22;24126;52.672;13.622;2023-04-22T11:32:27;28.70;30.40
38325;DHT22;24126;52.672;13.622;2023-04-22T11:34:54;28.70;30.00
38325;DHT22;24126;52.672;13.622;2023-04-22T11:37:22;28.70;29.60
38325;DHT22;24126;52.672;13.622;2023-04-22T11:39:49;28.70;30.10
38325;DHT22;24126;52.672;13.622;2023-04-22T11:42:20;28.70;29.60
38325;DHT22;24126;52.672;13.622;2023-04-22T11:44:48;28.70;29.80
38325;DHT22;24126;52.672;13.622;2023-04-22T11:47:16;28.70;29.60
38325;DHT22;24126;52.672;13.622;2023-04-22T11:49:57;28.70;29.70
38325;DHT22;24126;52.672;13.622;2023-04-22T11:52:25;28.60;29.60
38325;DHT22;24126;52.672;13.622;2023-04-22T11:55:05;28.50;29.80
38325;DHT22;24126;52.672;13.622;2023-04-22T11:57:34;28.50;29.60
38325;DHT22;24126;52.672;13.622;2023-04-22T12:00:01;28.50;30.00
38325;DHT22;24126;52.672;13.622;2023-04-22T12:02:30;28.60;30.50
38325;DHT22;24126;52.672;13.622;2023-04-22T12:04:57;28.50;30.10
38325;DHT22;24126;52.672;13.622;2023-04-22T12:07:27;28.50;30.00
38325;DHT22;24126;52.672;13.622;2023-04-22T12:09:55;28.50;31.00
38325;DHT22;24126;52.672;13.622;2023-04-22T12:12:25;28.50;29.80
38325;DHT22;24126;52.672;13.622;2023-04-22T12:14:52;28.40;30.60
38325;DHT22;24126;52.672;13.622;2023-04-22T12:17:22;28.50;29.60
38325;DHT22;24126;52.672;13.622;2023-04-22T12:19:53;28.50;30.80
38325;DHT22;24126;52.672;13.622;2023-04-22T12:22:24;28.50;29.80
38325;DHT22;24126;52.672;13.622;2023-04-22T12:24:52;28.40;30.10
38325;DHT22;24126;52.672;13.622;2023-04-22T12:27:19;28.40;29.40
38325;DHT22;24126;52.672;13.622;2023-04-22T12:29:50;28.30;29.70
38325;DHT22;24126;52.672;13.622;2023-04-22T12:32:21;28.30;29.50
38325;DHT22;24126;52.672;13.622;2023-04-22T12:34:48;28.20;29.20
38325;DHT22;24126;52.672;13.622;2023-04-22T12:37:15;28.20;30.40
38325;DHT22;24126;52.672;13.622;2023-04-22T12:39:43;28.20;29.40
38325;DHT22;24126;52.672;13.622;2023-04-22T12:42:10;28.20;30.00
38325;DHT22;24126;52.672;13.622;2023-04-22T12:44:38;28.30;29.80
38325;DHT22;24126;52.672;13.622;2023-04-22T12:47:05;28.30;29.60
38325;DHT22;24126;52.672;13.622;2023-04-22T12:49:32;28.40;29.30
38325;DHT22;24126;52.672;13.622;2023-04-22T12:51:59;28.40;29.70
38325;DHT22;24126;52.672;13.622;2023-04-22T12:54:26;28.30;29.10
38325;DHT22;24126;52.672;13.622;2023-04-22T12:56:53;28.20;29.50
38325;DHT22;24126;52.672;13.622;2023-04-22T12:59:20;28.20;29.70
38325;DHT22;24126;52.672;13.622;2023-04-22T13:01:47;28.20;29.80
38325;DHT22;24126;52.672;13.622;2023-04-22T13:04:14;28.20;29.30
38325;DHT22;24126;52.672;13.622;2023-04-22T13:06:41;28.20;30.20
38325;DHT22;24126;52.672;13.622;2023-04-22T13:09:08;28.20;30.90
38325;DHT22;24126;52.672;13.622;2023-04-22T13:11:35;28.20;31.00
38325;DHT22;24126;52.672;13.622;2023-04-22T13:14:03;28.20;29.60
38325;DHT22;24126;52.672;13.622;2023-04-22T13:16:30;28.30;30.10
38325;DHT22;24126;52.672;13.622;2023-04-22T13:18:57;28.30;30.20
38325;DHT22;24126;52.672;13.622;2023-04-22T13:21:24;28.30;29.50
38325;DHT22;24126;52.672;13.622;2023-04-22T13:23:53;28.20;30.10
38325;DHT22;24126;52.672;13.622;2023-04-22T13:26:20;28.20;29.80
38325;DHT22;24126;52.672;13.622;2023-04-22T13:28:47;28.10;30.00
38325;DHT22;24126;52.672;13.622;2023-04-22T13:31:14;28.00;30.20
38325;DHT22;24126;52.672;13.622;2023-04-22T13:33:41;28.10;30.00
38325;DHT22;24126;52.672;13.622;2023-04-22T13:36:09;28.00;30.00
38325;DHT22;24126;52.672;13.622;2023-04-22T13:38:36;28.00;30.10
38325;DHT22;24126;52.672;13.622;2023-04-22T13:41:03;27.90;29.70
38325;DHT22;24126;52.672;13.622;2023-04-22T13:43:30;27.90;30.10
38325;DHT22;24126;52.672;13.622;2023-04-22T13:45:57;27.90;30.00
38325;DHT22;24126;52.672;13.622;2023-04-22T13:48:24;27.90;30.60
38325;DHT22;24126;52.672;13.622;2023-04-22T13:50:52;27.80;29.70
38325;DHT22;24126;52.672;13.622;2023-04-22T13:53:19;27.70;29.40
38325;DHT22;24126;52.672;13.622;2023-04-22T13:55:46;27.70;29.70
38325;DHT22;24126;52.672;13.622;2023-04-22T13:58:13;27.60;30.10
38325;DHT22;24126;52.672;13.622;2023-04-22T14:00:40;27.60;29.50
38325;DHT22;24126;52.672;13.622;2023-04-22T14:03:07;27.40;30.40
38325;DHT22;24126;52.672;13.622;2023-04-22T14:05:34;27.40;30.00
38325;DHT22;24126;52.672;13.622;2023-04-22T14:08:01;27.40;30.20
38325;DHT22;24126;52.672;13.622;2023-04-22T14:10:28;27.40;30.00
38325;DHT22;24126;52.672;13.622;2023-04-22T14:12:55;27.30;29.20
38325;DHT22;24126;52.672;13.622;2023-04-22T14:15:23;27.20;29.20
38325;DHT22;24126;52.672;13.622;2023-04-22T14:17:50;27.20;29.00
38325;DHT22;24126;52.672;13.622;2023-04-22T14:20:17;27.20;29.20
38325;DHT22;24126;52.672;13.622;2023-04-22T14:22:44;27.20;29.10
38325;DHT22;24126;52.672;13.622;2023-04-22T14:25:11;27.20;29.40
38325;DHT22;24126;52.672;13.622;2023-04-22T14:27:42;27.20;29.70
38325;DHT22;24126;52.672;13.622;2023-04-22T14:30:10;27.20;31.20
38325;DHT22;24126;52.672;13.622;2023-04-22T14:32:37;27.10;30.20
38325;DHT22;24126;52.672;13.622;2023-04-22T14:35:04;27.10;30.10
38325;DHT22;24126;52.672;13.622;2023-04-22T14:37:32;27.00;30.20
38325;DHT22;24126;52.672;13.622;2023-04-22T14:40:00;27.00;29.40
38325;DHT22;24126;52.672;13.622;2023-04-22T14:42:27;27.00;29.50
38325;DHT22;24126;52.672;13.622;2023-04-22T14:44:54;27.00;29.80
38325;DHT22;24126;52.672;13.622;2023-04-22T14:47:21;27.00;29.90
38325;DHT22;24126;52.672;13.622;2023-04-22T14:49:48;27.00;30.00
38325;DHT22;24126;52.672;13.622;2023-04-22T14:52:15;26.90;29.60
38325;DHT22;24126;52.672;13.622;2023-04-22T14:54:42;26.80;30.50
38325;DHT22;24126;52.672;13.622;2023-04-22T14:57:09;26.80;30.50
38325;DHT22;24126;52.672;13.622;2023-04-22T14:59:37;26.80;30.70
38325;DHT22;24126;52.672;13.622;2023-04-22T15:02:04;26.80;30.90
38325;DHT22;24126;52.672;13.622;2023-04-22T15:04:31;26.80;30.60
38325;DHT22;24126;52.672;13.622;2023-04-22T15:06:59;26.80;30.70
38325;DHT22;24126;52.672;13.622;2023-04-22T15:09:28;26.80;31.40
38325;DHT22;24126;52.672;13.622;2023-04-22T15:11:55;26.80;31.60
38325;DHT22;24126;52.672;13.622;2023-04-22T15:14:24;26.70;30.70
38325;DHT22;24126;52.672;13.622;2023-04-22T15:16:55;26.70;30.10
38325;DHT22;24126;52.672;13.622;2023-04-22T15:19:22;26.70;30.50
38325;DHT22;24126;52.672;13.622;2023-04-22T15:21:49;26.70;30.00
38325;DHT22;24126;52.672;13.622;2023-04-22T15:24:16;26.60;30.30
38325;DHT22;24126;52.672;13.622;2023-04-22T15:26:45;26.50;29.90
38325;DHT22;24126;52.672;13.622;2023-04-22T15:29:12;26.50;30.30
38325;DHT22;24126;52.672;13.622;2023-04-22T15:31:39;26.50;30.40
38325;DHT22;24126;52.672;13.622;2023-04-22T15:34:06;26.50;30.90
38325;DHT22;24126;52.672;13.622;2023-04-22T15:36:33;26.50;30.90
38325;DHT22;24126;52.672;13.622;2023-04-22T15:39:00;26.50;30.50
38325;DHT22;24126;52.672;13.622;2023-04-22T15:41:28;26.50;30.00